createdAt,value
2023-03-02T00:00:47.155Z,28.63
2023-03-02T00:03:18.313Z,22.70
2023-03-02T00:05:49.380Z,28.93
2023-03-02T00:08:18.361Z,25.73
2023-03-02T00:10:45.143Z,25.40
2023-03-02T00:13:13.875Z,23.83
2023-03-02T00:15:41.017Z,27.53
2023-03-02T00:18:07.735Z,23.40
2023-03-02T00:20:35.976Z,28.90
2023-03-02T00:23:02.718Z,26.33
2023-03-02T00:25:29.399Z,24.97
2023-03-02T00:27:56.127Z,25.17
2023-03-02T00:30:22.804Z,28.43
2023-03-02T00:32:49.651Z,27.40
2023-03-02T00:35:16.415Z,25.17
2023-03-02T00:37:43.345Z,26.57
2023-03-02T00:40:10.792Z,25.97
2023-03-02T00:42:37.706Z,28.33
2023-03-02T00:45:05.836Z,30.60
2023-03-02T00:47:36.978Z,25.63
2023-03-02T00:50:05.559Z,25.93
2023-03-02T00:52:33.582Z,27.10
2023-03-02T00:55:00.122Z,27.67
2023-03-02T00:57:26.707Z,27.87
2023-03-02T00:59:53.300Z,26.17
2023-03-02T01:02:21.712Z,27.43
2023-03-02T01:04:48.866Z,31.97
2023-03-02T01:07:18.337Z,26.80
2023-03-02T01:09:45.799Z,24.77
2023-03-02T01:12:12.544Z,24.90
2023-03-02T01:14:42.022Z,27.03
2023-03-02T01:17:10.394Z,26.37
2023-03-02T01:19:45.666Z,30.50
2023-03-02T01:22:12.300Z,27.00
2023-03-02T01:24:38.947Z,29.77
2023-03-02T01:27:05.580Z,26.37
2023-03-02T01:29:32.178Z,25.27
2023-03-02T01:31:58.938Z,26.27
2023-03-02T01:34:27.022Z,28.77
2023-03-02T01:36:53.687Z,25.30
2023-03-02T01:39:22.749Z,26.07
2023-03-02T01:41:52.306Z,30.17
2023-03-02T01:44:39.566Z,26.87
2023-03-02T01:47:31.795Z,27.17
2023-03-02T01:50:13.519Z,30.00
2023-03-02T01:52:40.503Z,25.77
2023-03-02T01:55:11.119Z,32.17
2023-03-02T01:57:43.929Z,29.17
2023-03-02T02:00:21.963Z,27.10
2023-03-02T02:02:50.191Z,27.60
2023-03-02T02:05:21.461Z,27.00
2023-03-02T02:07:48.090Z,28.57
2023-03-02T02:10:14.731Z,25.90
2023-03-02T02:12:41.484Z,29.93
2023-03-02T02:15:08.540Z,26.67
2023-03-02T02:17:35.385Z,28.37
2023-03-02T02:20:28.601Z,25.20
2023-03-02T02:23:28.435Z,27.93
2023-03-02T02:26:04.504Z,28.00
2023-03-02T02:28:33.804Z,28.47
2023-03-02T02:31:23.625Z,26.43
2023-03-02T02:33:55.440Z,27.10
2023-03-02T02:36:34.104Z,26.03
2023-03-02T02:39:04.358Z,28.80
2023-03-02T02:41:36.813Z,27.60
2023-03-02T02:44:03.971Z,28.83
2023-03-02T02:46:33.002Z,27.97
2023-03-02T02:49:02.287Z,24.30
2023-03-02T02:51:29.674Z,28.50
2023-03-02T02:53:59.378Z,30.07
2023-03-02T02:56:29.817Z,26.70
2023-03-02T02:59:01.258Z,25.17
2023-03-02T03:01:28.377Z,26.93
2023-03-02T03:04:01.281Z,27.27
2023-03-02T03:06:38.183Z,29.37
2023-03-02T03:09:06.988Z,28.40
2023-03-02T03:11:41.172Z,31.83
2023-03-02T03:14:11.113Z,30.13
2023-03-02T03:16:39.928Z,25.97
2023-03-02T03:19:28.665Z,24.10
2023-03-02T03:21:58.150Z,26.80
2023-03-02T03:24:25.551Z,26.63
2023-03-02T03:26:54.249Z,30.77
2023-03-02T03:29:24.314Z,32.20
2023-03-02T03:31:57.180Z,28.13
2023-03-02T03:34:25.042Z,29.07
2023-03-02T03:36:52.836Z,29.23
2023-03-02T03:39:20.397Z,28.43
2023-03-02T03:41:46.933Z,29.03
2023-03-02T03:44:13.668Z,29.57
2023-03-02T03:46:40.262Z,27.97
2023-03-02T03:49:06.949Z,27.43
2023-03-02T03:51:35.849Z,29.17
2023-03-02T03:54:04.198Z,31.50
2023-03-02T03:56:33.954Z,27.27
2023-03-02T03:59:07.882Z,27.50
2023-03-02T04:01:39.454Z,31.27
2023-03-02T04:04:08.437Z,27.50
2023-03-02T04:06:35.710Z,28.97
2023-03-02T04:09:04.512Z,29.03
2023-03-02T04:11:33.156Z,30.87
2023-03-02T04:13:59.897Z,30.33
2023-03-02T04:16:27.248Z,31.03
2023-03-02T04:18:54.206Z,27.30
2023-03-02T04:21:21.674Z,32.73
2023-03-02T04:23:48.352Z,28.83
2023-03-02T04:26:15.163Z,33.80
2023-03-02T04:28:41.908Z,31.53
2023-03-02T04:31:08.681Z,29.33
2023-03-02T04:33:35.305Z,29.67
2023-03-02T04:36:02.112Z,27.60
2023-03-02T04:38:29.786Z,33.73
2023-03-02T04:40:58.100Z,28.97
2023-03-02T04:43:25.873Z,31.53
2023-03-02T04:45:53.987Z,30.37
2023-03-02T04:48:22.145Z,28.87
2023-03-02T04:50:48.808Z,29.93
2023-03-02T04:53:15.782Z,29.07
2023-03-02T04:55:42.535Z,29.20
2023-03-02T04:58:09.323Z,31.10
2023-03-02T05:00:36.494Z,29.30
2023-03-02T05:03:04.192Z,29.27
2023-03-02T05:05:31.588Z,31.43
2023-03-02T05:07:59.183Z,26.23
2023-03-02T05:10:27.448Z,29.33
2023-03-02T05:13:05.143Z,27.70
2023-03-02T05:15:38.040Z,30.73
2023-03-02T05:18:07.456Z,31.30
2023-03-02T05:20:34.778Z,30.10
2023-03-02T05:23:07.484Z,27.77
2023-03-02T05:25:36.093Z,30.33
2023-03-02T05:28:03.458Z,29.83
2023-03-02T05:30:31.000Z,28.87
2023-03-02T05:32:57.638Z,28.37
2023-03-02T05:35:24.933Z,25.90
2023-03-02T05:37:51.544Z,27.80
2023-03-02T05:40:20.501Z,33.43
2023-03-02T05:42:48.607Z,28.17
2023-03-02T05:45:28.277Z,29.10
2023-03-02T05:47:55.105Z,27.73
2023-03-02T05:50:22.348Z,33.37
2023-03-02T05:52:50.047Z,29.90
2023-03-02T05:55:18.244Z,28.20
2023-03-02T05:57:45.453Z,28.80
2023-03-02T06:00:13.838Z,28.23
2023-03-02T06:02:41.679Z,24.67
2023-03-02T06:05:11.172Z,28.57
2023-03-02T06:07:38.080Z,26.83
2023-03-02T06:10:05.951Z,28.40
2023-03-02T06:12:32.917Z,30.77
2023-03-02T06:14:59.759Z,32.87
2023-03-02T06:17:27.112Z,31.73
2023-03-02T06:19:53.853Z,27.63
2023-03-02T06:22:20.540Z,30.13
2023-03-02T06:24:47.050Z,33.03
2023-03-02T06:27:14.400Z,31.53
2023-03-02T06:29:41.151Z,25.77
2023-03-02T06:32:08.506Z,28.77
2023-03-02T06:34:35.549Z,29.03
2023-03-02T06:37:02.213Z,30.47
2023-03-02T06:39:30.181Z,30.50
2023-03-02T06:41:56.803Z,29.60
2023-03-02T06:44:23.390Z,30.67
2023-03-02T06:46:49.947Z,31.40
2023-03-02T06:49:16.593Z,35.57
2023-03-02T06:51:43.185Z,31.57
2023-03-02T06:54:09.977Z,26.57
2023-03-02T06:56:36.504Z,29.70
2023-03-02T06:59:03.067Z,29.30
2023-03-02T07:01:36.173Z,32.10
2023-03-02T07:04:03.801Z,28.90
2023-03-02T07:06:30.457Z,31.73
2023-03-02T07:08:57.083Z,32.00
2023-03-02T07:11:23.959Z,33.13
2023-03-02T07:13:51.110Z,28.43
2023-03-02T07:16:17.915Z,31.70
2023-03-02T07:18:44.565Z,30.43
2023-03-02T07:21:11.142Z,31.77
2023-03-02T07:23:37.739Z,32.20
2023-03-02T07:26:08.521Z,31.47
2023-03-02T07:28:39.769Z,31.70
2023-03-02T07:31:06.711Z,29.30
2023-03-02T07:33:33.317Z,30.53
2023-03-02T07:36:00.112Z,27.80
2023-03-02T07:38:27.329Z,37.80
2023-03-02T07:40:53.956Z,31.90
2023-03-02T07:43:20.521Z,29.20
2023-03-02T07:45:47.254Z,29.27
2023-03-02T07:48:13.800Z,31.27
2023-03-02T07:50:40.288Z,28.87
2023-03-02T07:53:07.084Z,33.93
2023-03-02T07:55:33.657Z,29.80
2023-03-02T07:58:00.300Z,29.23
2023-03-02T08:00:27.163Z,30.40
2023-03-02T08:02:53.916Z,32.20
2023-03-02T08:05:20.639Z,30.00
2023-03-02T08:07:47.227Z,34.00
2023-03-02T08:10:13.878Z,28.37
2023-03-02T08:12:42.879Z,29.70
2023-03-02T08:15:10.435Z,33.73
2023-03-02T08:17:37.060Z,29.37
2023-03-02T08:20:04.636Z,33.17
2023-03-02T08:22:31.211Z,31.63
2023-03-02T08:24:57.781Z,30.37
2023-03-02T08:27:24.562Z,28.17
2023-03-02T08:29:51.354Z,30.33
2023-03-02T08:32:18.009Z,30.33
2023-03-02T08:34:44.615Z,29.23
2023-03-02T08:37:11.201Z,27.47
2023-03-02T08:39:37.683Z,28.77
2023-03-02T08:42:04.501Z,32.53
2023-03-02T08:44:31.096Z,30.50
2023-03-02T08:46:57.842Z,26.70
2023-03-02T08:49:24.388Z,30.70
2023-03-02T08:51:53.706Z,28.77
2023-03-02T08:54:21.072Z,27.57
2023-03-02T08:56:48.915Z,29.70
2023-03-02T08:59:15.801Z,28.47
2023-03-02T09:01:43.091Z,28.00
2023-03-02T09:04:10.697Z,25.90
2023-03-02T09:06:40.406Z,29.90
2023-03-02T09:09:08.000Z,26.90
2023-03-02T09:11:35.050Z,26.33
2023-03-02T09:14:02.004Z,29.27
2023-03-02T09:16:28.654Z,26.47
2023-03-02T09:18:55.401Z,24.93
2023-03-02T09:21:22.446Z,24.47
2023-03-02T09:23:49.120Z,28.23
2023-03-02T09:26:15.748Z,28.57
2023-03-02T09:28:42.417Z,23.40
2023-03-02T09:31:09.177Z,31.73
2023-03-02T09:33:36.395Z,31.97
2023-03-02T09:36:11.553Z,27.40
2023-03-02T09:38:38.207Z,26.00
2023-03-02T09:41:20.629Z,26.67
2023-03-02T09:44:00.081Z,29.40
2023-03-02T09:46:46.614Z,29.37
2023-03-02T09:49:28.659Z,25.17
2023-03-02T09:52:19.909Z,27.40
2023-03-02T09:54:46.534Z,28.27
2023-03-02T09:57:34.403Z,28.60
2023-03-02T10:00:18.087Z,26.50
2023-03-02T10:03:00.561Z,27.93
2023-03-02T10:05:36.396Z,30.10
2023-03-02T10:08:02.930Z,26.93
2023-03-02T10:10:36.631Z,27.97
2023-03-02T10:13:19.256Z,25.27
2023-03-02T10:15:56.620Z,25.03
2023-03-02T10:18:34.366Z,25.43
2023-03-02T10:21:12.982Z,31.73
2023-03-02T10:23:46.111Z,27.97
2023-03-02T10:26:23.214Z,26.00
2023-03-02T10:29:01.091Z,28.03
2023-03-02T10:31:33.362Z,26.40
2023-03-02T10:34:00.795Z,28.83
2023-03-02T10:36:38.217Z,28.27
2023-03-02T10:39:12.410Z,26.93
2023-03-02T10:41:47.282Z,29.53
2023-03-02T10:44:27.103Z,28.07
2023-03-02T10:46:53.972Z,26.83
2023-03-02T10:49:32.144Z,24.87
2023-03-02T10:52:05.386Z,25.63
2023-03-02T10:54:34.472Z,24.90
2023-03-02T10:57:03.488Z,26.73
2023-03-02T10:59:39.596Z,29.13
2023-03-02T11:02:08.827Z,25.37
2023-03-02T11:04:35.513Z,24.20
2023-03-02T11:07:17.545Z,27.50
2023-03-02T11:09:59.222Z,28.43
2023-03-02T11:12:26.394Z,26.17
2023-03-02T11:15:14.921Z,26.70
2023-03-02T11:17:43.631Z,28.20
2023-03-02T11:20:23.781Z,22.80
2023-03-02T11:23:07.504Z,24.63
2023-03-02T11:25:40.680Z,24.07
2023-03-02T11:28:22.466Z,27.47
2023-03-02T11:30:51.344Z,24.70
2023-03-02T11:33:24.473Z,25.70
2023-03-02T11:35:58.492Z,26.23
2023-03-02T11:38:42.888Z,27.00
2023-03-02T11:41:30.020Z,29.63
2023-03-02T11:44:00.211Z,26.67
2023-03-02T11:46:32.213Z,27.27
2023-03-02T11:49:07.453Z,29.53
2023-03-02T11:51:39.109Z,27.17
2023-03-02T11:54:33.923Z,27.70
2023-03-02T11:57:01.682Z,28.17
2023-03-02T11:59:29.168Z,28.20
2023-03-02T12:01:57.518Z,24.83
2023-03-02T12:04:36.381Z,28.07
2023-03-02T12:07:25.934Z,25.87
2023-03-02T12:10:24.066Z,24.70
2023-03-02T12:13:23.080Z,22.83
2023-03-02T12:15:51.030Z,25.43
2023-03-02T12:18:20.732Z,27.37
2023-03-02T12:21:03.764Z,27.30
2023-03-02T12:23:32.541Z,26.30
2023-03-02T12:26:08.348Z,25.50
2023-03-02T12:28:38.873Z,28.10
2023-03-02T12:31:11.115Z,25.43
2023-03-02T12:33:48.774Z,26.30
2023-03-02T12:36:40.342Z,26.70
2023-03-02T12:39:13.021Z,45.60
2023-03-02T12:42:06.516Z,25.93
2023-03-02T12:44:47.751Z,27.17
2023-03-02T12:47:19.474Z,26.23
2023-03-02T12:50:17.232Z,23.87
2023-03-02T12:52:43.778Z,26.80
2023-03-02T12:55:10.356Z,25.27
2023-03-02T12:57:50.521Z,27.90
2023-03-02T13:00:19.996Z,26.13
2023-03-02T13:02:50.296Z,27.60
2023-03-02T13:05:23.712Z,23.97
2023-03-02T13:07:55.673Z,24.07
2023-03-02T13:10:25.324Z,25.33
2023-03-02T13:12:52.019Z,27.13
2023-03-02T13:15:18.879Z,26.37
2023-03-02T13:17:54.253Z,27.50
2023-03-02T13:20:22.706Z,27.33
2023-03-02T13:22:49.391Z,28.47
2023-03-02T13:25:28.709Z,31.87
2023-03-02T13:28:10.891Z,27.73
2023-03-02T13:30:43.568Z,26.83
2023-03-02T13:33:21.859Z,28.33
2023-03-02T13:35:48.723Z,28.37
2023-03-02T13:38:21.427Z,28.50
2023-03-02T13:40:54.162Z,26.53
2023-03-02T13:43:26.796Z,25.93
2023-03-02T13:46:01.659Z,25.93
2023-03-02T13:48:29.408Z,23.70
2023-03-02T13:51:19.652Z,25.30
2023-03-02T13:53:53.857Z,26.47
2023-03-02T13:56:24.785Z,27.20
2023-03-02T13:58:51.396Z,27.83
2023-03-02T14:01:18.189Z,26.80
2023-03-02T14:03:44.781Z,27.57
2023-03-02T14:06:11.346Z,27.83
2023-03-02T14:08:37.918Z,26.73
2023-03-02T14:11:05.593Z,23.37
2023-03-02T14:13:42.608Z,24.80
2023-03-02T14:16:13.342Z,24.93
2023-03-02T14:18:41.573Z,27.97
2023-03-02T14:21:20.637Z,27.97
2023-03-02T14:23:47.798Z,25.50
2023-03-02T14:26:36.502Z,25.10
2023-03-02T14:29:31.635Z,26.57
2023-03-02T14:32:03.677Z,27.40
2023-03-02T14:34:30.341Z,26.13
2023-03-02T14:36:59.069Z,26.33
2023-03-02T14:39:28.655Z,26.17
2023-03-02T14:41:56.014Z,25.03
2023-03-02T14:44:23.425Z,43.73
2023-03-02T14:46:50.489Z,26.40
2023-03-02T14:49:17.099Z,30.40
2023-03-02T14:51:49.088Z,29.20
2023-03-02T14:54:19.500Z,26.83
2023-03-02T14:56:48.139Z,27.17
2023-03-02T14:59:15.948Z,28.77
2023-03-02T15:01:44.589Z,25.90
2023-03-02T15:04:11.224Z,30.23
2023-03-02T15:06:39.942Z,26.50
2023-03-02T15:09:07.696Z,28.33
2023-03-02T15:11:34.671Z,25.70
2023-03-02T15:14:01.577Z,29.23
2023-03-02T15:16:28.227Z,28.27
2023-03-02T15:18:55.591Z,27.27
2023-03-02T15:21:24.798Z,26.60
2023-03-02T15:23:51.464Z,25.90
2023-03-02T15:26:18.116Z,27.53
2023-03-02T15:28:47.556Z,25.27
2023-03-02T15:31:16.593Z,25.93
2023-03-02T15:33:45.571Z,24.47
2023-03-02T15:36:13.034Z,24.53
2023-03-02T15:38:39.969Z,24.57
2023-03-02T15:41:08.678Z,26.23
2023-03-02T15:43:35.239Z,23.90
2023-03-02T15:46:02.409Z,26.57
2023-03-02T15:48:30.205Z,26.40
2023-03-02T15:51:02.098Z,26.53
2023-03-02T15:53:30.056Z,25.63
2023-03-02T15:55:57.326Z,28.87
2023-03-02T15:58:24.448Z,29.17
2023-03-02T16:00:53.583Z,25.67
2023-03-02T16:03:22.851Z,25.40
2023-03-02T16:05:49.764Z,25.13
2023-03-02T16:08:16.495Z,25.53
2023-03-02T16:10:43.141Z,25.93
2023-03-02T16:13:13.307Z,26.43
2023-03-02T16:15:41.600Z,23.73
2023-03-02T16:18:09.840Z,27.17
2023-03-02T16:20:37.968Z,24.27
2023-03-02T16:23:07.696Z,27.50
2023-03-02T16:25:43.561Z,28.90
2023-03-02T16:28:11.832Z,28.50
2023-03-02T16:30:40.245Z,26.30
2023-03-02T16:33:09.968Z,27.43
2023-03-02T16:35:37.436Z,28.47
2023-03-02T16:38:05.757Z,26.37
2023-03-02T16:40:33.385Z,26.33
2023-03-02T16:43:00.011Z,27.93
2023-03-02T16:45:27.104Z,27.80
2023-03-02T16:47:54.116Z,27.83
2023-03-02T16:50:20.776Z,28.40
2023-03-02T16:52:47.280Z,28.33
2023-03-02T16:55:17.329Z,29.57
2023-03-02T16:57:44.255Z,30.37
2023-03-02T17:00:14.642Z,33.53
2023-03-02T17:02:41.545Z,35.23
2023-03-02T17:05:08.642Z,30.43
2023-03-02T17:07:35.423Z,31.97
2023-03-02T17:10:02.707Z,36.17
2023-03-02T17:12:29.365Z,32.30
2023-03-02T17:14:56.261Z,34.80
2023-03-02T17:17:22.873Z,33.23
2023-03-02T17:19:49.386Z,39.00
2023-03-02T17:22:16.316Z,39.97
2023-03-02T17:24:42.882Z,34.20
2023-03-02T17:27:23.823Z,50.40
2023-03-02T17:29:52.120Z,40.17
2023-03-02T17:32:19.068Z,33.77
2023-03-02T17:34:46.930Z,36.57
2023-03-02T17:37:14.462Z,37.53
2023-03-02T17:39:40.952Z,32.47
2023-03-02T17:42:07.598Z,34.27
2023-03-02T17:44:34.655Z,32.70
2023-03-02T17:47:06.485Z,31.70
2023-03-02T17:49:33.050Z,36.67
2023-03-02T17:51:59.983Z,33.37
2023-03-02T17:54:26.578Z,33.53
2023-03-02T17:56:53.155Z,35.33
2023-03-02T17:59:19.733Z,36.40
2023-03-02T18:01:46.353Z,37.57
2023-03-02T18:04:13.040Z,39.17
2023-03-02T18:06:40.066Z,35.30
2023-03-02T18:09:06.989Z,35.57
2023-03-02T18:11:33.772Z,33.63
2023-03-02T18:14:00.368Z,39.10
2023-03-02T18:16:30.930Z,33.40
2023-03-02T18:18:57.766Z,36.23
2023-03-02T18:21:24.347Z,34.30
2023-03-02T18:23:50.954Z,38.87
2023-03-02T18:26:17.608Z,38.10
2023-03-02T18:28:44.284Z,35.73
2023-03-02T18:31:14.126Z,36.87
2023-03-02T18:33:40.738Z,37.30
2023-03-02T18:36:07.792Z,44.93
2023-03-02T18:38:35.702Z,38.10
2023-03-02T18:41:04.584Z,33.27
2023-03-02T18:43:34.721Z,37.53
2023-03-02T18:46:04.045Z,38.23
2023-03-02T18:48:31.483Z,38.23
2023-03-02T18:50:58.737Z,36.17
2023-03-02T18:53:26.509Z,35.57
2023-03-02T18:55:56.349Z,37.40
2023-03-02T18:58:24.743Z,31.83
2023-03-02T19:00:53.615Z,34.87
2023-03-02T19:03:20.511Z,38.47
2023-03-02T19:05:47.125Z,38.83
2023-03-02T19:08:13.722Z,35.53
2023-03-02T19:10:42.303Z,35.83
2023-03-02T19:13:11.747Z,36.40
2023-03-02T19:15:40.318Z,36.63
2023-03-02T19:18:06.934Z,37.90
2023-03-02T19:20:33.963Z,33.43
2023-03-02T19:23:01.684Z,36.17
2023-03-02T19:25:28.814Z,41.47
2023-03-02T19:27:55.368Z,34.80
2023-03-02T19:30:25.834Z,36.43
2023-03-02T19:32:54.077Z,41.33
2023-03-02T19:35:23.333Z,39.80
2023-03-02T19:37:50.251Z,38.33
2023-03-02T19:40:19.388Z,40.00
2023-03-02T19:42:47.508Z,38.50
2023-03-02T19:45:21.872Z,38.77
2023-03-02T19:47:48.476Z,38.77
2023-03-02T19:50:16.889Z,38.90
2023-03-02T19:52:43.895Z,39.70
2023-03-02T19:55:12.584Z,39.83
2023-03-02T19:57:40.313Z,42.13
2023-03-02T20:00:13.150Z,37.33
2023-03-02T20:02:40.817Z,38.47
2023-03-02T20:05:09.721Z,38.07
2023-03-02T20:07:36.958Z,36.40
2023-03-02T20:10:04.942Z,39.00
2023-03-02T20:12:31.483Z,42.87
2023-03-02T20:14:58.036Z,35.17
2023-03-02T20:17:24.764Z,38.37
2023-03-02T20:19:52.631Z,38.27
2023-03-02T20:22:19.464Z,40.53
2023-03-02T20:24:46.057Z,39.63
2023-03-02T20:27:12.890Z,34.77
2023-03-02T20:29:43.305Z,41.67
2023-03-02T20:32:12.117Z,39.43
2023-03-02T20:34:42.000Z,37.43
2023-03-02T20:37:09.055Z,40.97
2023-03-02T20:39:39.806Z,43.10
2023-03-02T20:42:07.584Z,33.60
2023-03-02T20:44:34.885Z,43.30
2023-03-02T20:47:08.256Z,37.77
2023-03-02T20:49:37.114Z,38.13
2023-03-02T20:52:04.886Z,43.73
2023-03-02T20:54:35.433Z,39.33
2023-03-02T20:57:02.171Z,43.80
2023-03-02T20:59:28.822Z,42.70
2023-03-02T21:01:55.554Z,43.93
2023-03-02T21:04:22.588Z,40.27
2023-03-02T21:06:49.800Z,37.60
2023-03-02T21:09:18.132Z,42.00
2023-03-02T21:11:46.106Z,37.83
2023-03-02T21:14:15.556Z,41.93
2023-03-02T21:16:44.443Z,44.33
2023-03-02T21:19:16.428Z,41.47
2023-03-02T21:21:43.330Z,40.13
2023-03-02T21:24:20.750Z,42.67
2023-03-02T21:26:49.857Z,38.67
2023-03-02T21:29:18.003Z,33.30
2023-03-02T21:31:44.950Z,38.70
2023-03-02T21:34:13.536Z,36.90
2023-03-02T21:36:40.790Z,46.87
2023-03-02T21:39:09.578Z,37.97
2023-03-02T21:41:36.558Z,39.63
2023-03-02T21:44:05.751Z,36.10
2023-03-02T21:46:35.229Z,40.70
2023-03-02T21:49:02.408Z,38.73
2023-03-02T21:51:29.148Z,39.77
2023-03-02T21:53:55.735Z,38.70
2023-03-02T21:56:24.796Z,36.00
2023-03-02T21:58:53.897Z,39.43
2023-03-02T22:01:21.365Z,30.27
2023-03-02T22:03:48.684Z,36.90
2023-03-02T22:06:26.961Z,32.40
2023-03-02T22:08:54.496Z,32.83
2023-03-02T22:11:30.803Z,31.47
2023-03-02T22:14:00.389Z,35.57
2023-03-02T22:16:32.969Z,33.43
2023-03-02T22:19:00.820Z,31.63
2023-03-02T22:21:36.877Z,30.40
2023-03-02T22:24:09.192Z,32.67
2023-03-02T22:26:40.492Z,31.43
2023-03-02T22:29:38.042Z,34.17
2023-03-02T22:32:24.271Z,36.23
2023-03-02T22:34:56.758Z,27.80
2023-03-02T22:37:26.584Z,33.27
2023-03-02T22:40:00.885Z,33.00
2023-03-02T22:42:30.370Z,34.23
2023-03-02T22:45:06.527Z,32.57
2023-03-02T22:47:33.099Z,31.53
2023-03-02T22:50:13.822Z,31.27
2023-03-02T22:52:43.067Z,33.50
2023-03-02T22:55:37.914Z,31.27
2023-03-02T22:58:31.822Z,29.40
2023-03-02T23:01:00.230Z,33.33
2023-03-02T23:03:44.156Z,27.27
2023-03-02T23:06:42.380Z,28.77
2023-03-02T23:09:09.009Z,35.00
2023-03-02T23:11:40.991Z,34.57
2023-03-02T23:14:19.044Z,31.87
2023-03-02T23:16:48.439Z,30.33
2023-03-02T23:19:15.134Z,34.90
2023-03-02T23:21:46.350Z,38.80
2023-03-02T23:24:12.985Z,29.10
2023-03-02T23:26:40.071Z,34.03
2023-03-02T23:29:07.345Z,32.67
2023-03-02T23:31:34.003Z,30.40
2023-03-02T23:34:00.737Z,32.07
2023-03-02T23:36:27.828Z,37.40
2023-03-02T23:38:54.508Z,31.53
2023-03-02T23:41:21.068Z,31.67
2023-03-02T23:43:47.915Z,32.23
2023-03-02T23:46:14.751Z,34.60
2023-03-02T23:48:42.686Z,32.47
2023-03-02T23:51:10.065Z,31.23
2023-03-02T23:53:36.629Z,25.80
2023-03-02T23:56:03.200Z,32.50
2023-03-02T23:58:29.766Z,33.47
